createdAt,value
2022-09-11T00:01:27.601Z,95432.34
2022-09-11T00:04:14.574Z,95429.09
2022-09-11T00:07:01.235Z,95433.00
2022-09-11T00:09:48.011Z,95416.91
2022-09-11T00:12:35.180Z,95406.66
2022-09-11T00:15:22.331Z,95408.25
2022-09-11T00:18:12.006Z,95406.66
2022-09-11T00:20:59.373Z,95408.63
2022-09-11T00:23:49.725Z,95409.78
2022-09-11T00:26:37.592Z,95415.53
2022-09-11T00:29:24.860Z,95413.84
2022-09-11T00:32:11.530Z,95410.25
2022-09-11T00:34:58.633Z,95407.09
2022-09-11T00:37:46.092Z,95409.38
2022-09-11T00:40:32.841Z,95413.25
2022-09-11T00:43:19.904Z,95419.47
2022-09-11T00:46:07.202Z,95414.72
2022-09-11T00:48:57.783Z,95415.31
2022-09-11T00:51:52.712Z,95417.91
2022-09-11T00:54:52.990Z,95424.06
2022-09-11T00:57:44.922Z,95419.25
2022-09-11T01:00:31.869Z,95416.44
2022-09-11T01:03:19.916Z,95417.50
2022-09-11T01:06:07.513Z,95421.75
2022-09-11T01:08:54.716Z,95418.56
2022-09-11T01:11:53.977Z,95421.19
2022-09-11T01:15:02.034Z,95418.06
2022-09-11T01:17:55.304Z,95415.72
2022-09-11T01:21:02.485Z,95420.78
2022-09-11T01:23:56.697Z,95421.19
2022-09-11T01:27:05.229Z,95428.25
2022-09-11T01:30:19.191Z,95421.94
2022-09-11T01:33:17.556Z,95418.91
2022-09-11T01:36:20.263Z,95428.97
2022-09-11T01:39:09.061Z,95431.28
2022-09-11T01:42:01.935Z,95427.19
2022-09-11T01:44:54.710Z,95422.88
2022-09-11T01:47:46.495Z,95418.59
2022-09-11T01:50:33.739Z,95419.28
2022-09-11T01:53:24.574Z,95414.63
2022-09-11T01:56:23.233Z,95417.00
2022-09-11T01:59:15.351Z,95413.13
2022-09-11T02:02:07.270Z,95406.06
2022-09-11T02:05:05.114Z,95407.47
2022-09-11T02:07:52.063Z,95413.72
2022-09-11T02:10:50.259Z,95406.94
2022-09-11T02:13:49.470Z,95405.59
2022-09-11T02:17:06.883Z,95409.41
2022-09-11T02:19:54.493Z,95405.53
2022-09-11T02:22:42.457Z,95399.25
2022-09-11T02:25:29.167Z,95408.59
2022-09-11T02:28:17.719Z,95406.66
2022-09-11T02:31:07.445Z,95403.13
2022-09-11T02:33:55.139Z,95407.00
2022-09-11T02:37:03.738Z,95393.53
2022-09-11T02:40:20.116Z,95395.09
2022-09-11T02:43:14.864Z,95394.31
2022-09-11T02:46:20.280Z,95390.34
2022-09-11T02:49:44.691Z,95391.94
2022-09-11T02:52:54.071Z,95393.78
2022-09-11T02:56:01.392Z,95394.47
2022-09-11T02:58:57.657Z,95395.19
2022-09-11T03:01:55.429Z,95399.88
2022-09-11T03:04:46.248Z,95399.41
2022-09-11T03:07:34.967Z,95399.50
2022-09-11T03:10:22.246Z,95401.06
2022-09-11T03:13:11.457Z,95402.66
2022-09-11T03:16:03.050Z,95400.38
2022-09-11T03:18:50.442Z,95396.75
2022-09-11T03:21:39.658Z,95402.22
2022-09-11T03:24:27.374Z,95409.53
2022-09-11T03:27:14.899Z,95414.91
2022-09-11T03:30:01.938Z,95400.00
2022-09-11T03:32:50.741Z,95407.78
2022-09-11T03:35:39.342Z,95404.59
2022-09-11T03:38:26.693Z,95408.47
2022-09-11T03:41:15.197Z,95416.56
2022-09-11T03:44:04.797Z,95412.16
2022-09-11T03:46:53.530Z,95413.53
2022-09-11T03:49:41.399Z,95411.09
2022-09-11T03:52:32.971Z,95412.91
2022-09-11T03:55:20.054Z,95414.06
2022-09-11T03:58:08.148Z,95407.69
2022-09-11T04:00:57.550Z,95413.88
2022-09-11T04:03:44.540Z,95420.00
2022-09-11T04:06:42.633Z,95421.84
2022-09-11T04:09:31.897Z,95425.28
2022-09-11T04:12:19.973Z,95420.50
2022-09-11T04:15:08.504Z,95426.63
2022-09-11T04:17:55.764Z,95418.88
2022-09-11T04:20:43.425Z,95418.88
2022-09-11T04:23:30.964Z,95415.72
2022-09-11T04:26:19.438Z,95417.97
2022-09-11T04:29:13.024Z,95420.72
2022-09-11T04:32:00.169Z,95416.75
2022-09-11T04:34:50.743Z,95420.97
2022-09-11T04:37:37.979Z,95413.25
2022-09-11T04:40:25.386Z,95413.25
2022-09-11T04:43:13.244Z,95411.31
2022-09-11T04:46:05.523Z,95416.03
2022-09-11T04:48:56.209Z,95411.84
2022-09-11T04:51:45.718Z,95416.63
2022-09-11T04:54:35.179Z,95412.84
2022-09-11T04:57:30.723Z,95420.47
2022-09-11T05:00:18.265Z,95423.38
2022-09-11T05:03:05.706Z,95438.38
2022-09-11T05:05:54.094Z,95433.00
2022-09-11T05:08:41.091Z,95434.69
2022-09-11T05:11:27.914Z,95432.88
2022-09-11T05:14:15.752Z,95437.38
2022-09-11T05:17:05.015Z,95433.22
2022-09-11T05:19:56.493Z,95429.09
2022-09-11T05:22:43.742Z,95435.19
2022-09-11T05:25:34.104Z,95438.03
2022-09-11T05:28:22.745Z,95444.09
2022-09-11T05:31:18.229Z,95443.03
2022-09-11T05:34:06.101Z,95445.88
2022-09-11T05:36:53.444Z,95436.19
2022-09-11T05:39:40.424Z,95459.38
2022-09-11T05:42:29.404Z,95441.84
2022-09-11T05:45:16.695Z,95449.00
2022-09-11T05:48:04.952Z,95445.91
2022-09-11T05:51:01.400Z,95435.41
2022-09-11T05:53:51.229Z,95440.63
2022-09-11T05:56:38.548Z,95432.41
2022-09-11T05:59:31.760Z,95435.16
2022-09-11T06:02:19.632Z,95424.22
2022-09-11T06:05:12.007Z,95427.41
2022-09-11T06:07:59.112Z,95428.25
2022-09-11T06:10:49.508Z,95425.25
2022-09-11T06:13:40.185Z,95435.13
2022-09-11T06:16:28.041Z,95436.44
2022-09-11T06:19:19.282Z,95431.94
2022-09-11T06:22:06.327Z,95432.09
2022-09-11T06:24:58.318Z,95436.28
2022-09-11T06:27:47.379Z,95426.38
2022-09-11T06:30:34.960Z,95429.00
2022-09-11T06:33:22.681Z,95434.00
2022-09-11T06:36:16.556Z,95433.78
2022-09-11T06:39:05.337Z,95431.22
2022-09-11T06:41:55.847Z,95429.69
2022-09-11T06:44:50.953Z,95432.50
2022-09-11T06:47:38.640Z,95429.06
2022-09-11T06:50:27.088Z,95433.06
2022-09-11T06:53:25.645Z,95436.38
2022-09-11T06:56:17.722Z,95433.34
2022-09-11T06:59:06.318Z,95435.81
2022-09-11T07:01:55.637Z,95443.72
2022-09-11T07:04:43.706Z,95442.28
2022-09-11T07:07:31.443Z,95436.06
2022-09-11T07:10:18.703Z,95440.81
2022-09-11T07:13:11.640Z,95445.28
2022-09-11T07:16:04.011Z,95437.16
2022-09-11T07:18:58.373Z,95452.88
2022-09-11T07:21:46.869Z,95460.28
2022-09-11T07:24:33.474Z,95450.41
2022-09-11T07:27:19.715Z,95435.03
2022-09-11T07:30:11.870Z,95445.72
2022-09-11T07:33:01.577Z,95442.63
2022-09-11T07:35:48.302Z,95447.31
2022-09-11T07:38:35.679Z,95445.72
2022-09-11T07:41:23.898Z,95448.59
2022-09-11T07:44:15.147Z,95442.44
2022-09-11T07:47:01.264Z,95427.97
2022-09-11T07:49:51.051Z,95433.19
2022-09-11T07:52:37.771Z,95437.59
2022-09-11T07:55:25.275Z,95440.88
2022-09-11T07:58:13.607Z,95438.97
2022-09-11T08:01:00.215Z,95446.25
2022-09-11T08:03:46.919Z,95442.09
2022-09-11T08:06:36.739Z,95430.47
2022-09-11T08:09:27.278Z,95440.06
2022-09-11T08:12:15.143Z,95426.06
2022-09-11T08:15:00.992Z,95437.97
2022-09-11T08:17:48.668Z,95441.66
2022-09-11T08:20:34.614Z,95438.25
2022-09-11T08:23:22.165Z,95430.88
2022-09-11T08:26:09.928Z,95443.94
2022-09-11T08:29:00.059Z,95440.13
2022-09-11T08:31:50.667Z,95448.81
2022-09-11T08:34:38.554Z,95452.09
2022-09-11T08:37:25.914Z,95440.31
2022-09-11T08:40:13.109Z,95452.25
2022-09-11T08:43:02.537Z,95452.31
2022-09-11T08:45:50.102Z,95448.06
2022-09-11T08:48:50.528Z,95439.06
2022-09-11T08:51:37.050Z,95434.72
2022-09-11T08:54:27.905Z,95435.19
2022-09-11T08:57:37.789Z,95435.97
2022-09-11T09:00:41.337Z,95435.25
2022-09-11T09:04:10.094Z,95439.97
2022-09-11T09:07:24.526Z,95435.69
2022-09-11T09:10:24.184Z,95444.72
2022-09-11T09:13:31.155Z,95440.00
2022-09-11T09:16:36.573Z,95437.59
2022-09-11T09:19:41.646Z,95435.19
2022-09-11T09:22:45.148Z,95430.41
2022-09-11T09:25:38.453Z,95417.06
2022-09-11T09:28:33.682Z,95404.50
2022-09-11T09:31:22.070Z,95399.09
2022-09-11T09:34:16.377Z,95392.91
2022-09-11T09:37:23.232Z,95385.13
2022-09-11T09:40:10.998Z,95381.34
2022-09-11T09:43:19.489Z,95389.34
2022-09-11T09:46:14.728Z,95393.00
2022-09-11T09:49:01.395Z,95391.13
2022-09-11T09:51:48.540Z,95388.44
2022-09-11T09:54:36.570Z,95384.94
2022-09-11T09:57:25.288Z,95378.69
2022-09-11T10:00:11.987Z,95369.28
2022-09-11T10:03:18.446Z,95376.03
2022-09-11T10:06:05.402Z,95365.06
2022-09-11T10:09:00.119Z,95373.41
2022-09-11T10:12:02.868Z,95373.06
2022-09-11T10:14:59.916Z,95360.09
2022-09-11T10:17:48.172Z,95364.13
2022-09-11T10:20:34.919Z,95350.75
2022-09-11T10:23:26.203Z,95368.13
2022-09-11T10:26:21.663Z,95357.91
2022-09-11T10:29:16.245Z,95353.91
2022-09-11T10:32:03.007Z,95346.72
2022-09-11T10:34:49.100Z,95339.56
2022-09-11T10:37:35.268Z,95332.78
2022-09-11T10:40:23.242Z,95335.47
2022-09-11T10:43:28.513Z,95330.72
2022-09-11T10:46:40.377Z,95337.00
2022-09-11T10:49:26.673Z,95338.56
2022-09-11T10:52:12.314Z,95334.94
2022-09-11T10:55:05.704Z,95331.38
2022-09-11T10:57:58.011Z,95324.66
2022-09-11T11:00:45.012Z,95326.69
2022-09-11T11:03:31.114Z,95320.44
2022-09-11T11:06:46.492Z,95326.78
2022-09-11T11:09:49.405Z,95326.44
2022-09-11T11:12:49.988Z,95313.09
2022-09-11T11:15:44.910Z,95322.59
2022-09-11T11:19:07.057Z,95316.72
2022-09-11T11:22:22.676Z,95311.22
2022-09-11T11:25:14.717Z,95308.44
2022-09-11T11:28:32.143Z,95298.06
2022-09-11T11:31:28.344Z,95291.97
2022-09-11T11:34:20.503Z,95287.78
2022-09-11T11:37:34.784Z,95301.25
2022-09-11T11:40:46.288Z,95289.22
2022-09-11T11:43:34.289Z,95286.84
2022-09-11T11:46:35.240Z,95283.81
2022-09-11T11:49:31.595Z,95283.47
2022-09-11T11:52:31.947Z,95273.44
2022-09-11T11:55:21.469Z,95270.47
2022-09-11T11:58:14.747Z,95254.72
2022-09-11T12:01:02.397Z,95253.16
2022-09-11T12:03:59.798Z,95251.06
2022-09-11T12:06:46.668Z,95248.69
2022-09-11T12:09:33.863Z,95238.91
2022-09-11T12:12:21.903Z,95229.41
2022-09-11T12:15:30.288Z,95237.88
2022-09-11T12:18:16.115Z,95224.34
2022-09-11T12:21:31.705Z,95228.94
2022-09-11T12:24:20.457Z,95230.03
2022-09-11T12:27:34.672Z,95232.84
2022-09-11T12:30:26.691Z,95219.31
2022-09-11T12:33:41.075Z,95205.88
2022-09-11T12:36:33.861Z,95191.00
2022-09-11T12:39:27.741Z,95187.56
2022-09-11T12:42:25.925Z,95188.31
2022-09-11T12:45:37.224Z,95173.78
2022-09-11T12:48:32.448Z,95174.03
2022-09-11T12:51:32.955Z,95179.31
2022-09-11T12:54:40.225Z,95188.00
2022-09-11T12:57:35.451Z,95180.25
2022-09-11T13:00:34.888Z,95180.53
2022-09-11T13:03:24.309Z,95180.16
2022-09-11T13:06:12.025Z,95189.16
2022-09-11T13:08:59.996Z,95203.81
2022-09-11T13:11:49.657Z,95201.28
2022-09-11T13:14:48.061Z,95211.66
2022-09-11T13:17:34.764Z,95207.84
2022-09-11T13:20:23.347Z,95220.88
2022-09-11T13:23:18.637Z,95233.38
2022-09-11T13:26:06.411Z,95252.91
2022-09-11T13:28:55.353Z,95258.16
2022-09-11T13:31:43.234Z,95260.22
2022-09-11T13:34:29.949Z,95253.41
2022-09-11T13:37:35.964Z,95259.94
2022-09-11T13:40:29.851Z,95267.19
2022-09-11T13:43:20.898Z,95262.50
2022-09-11T13:46:11.774Z,95268.44
2022-09-11T13:49:17.814Z,95279.06
2022-09-11T13:52:06.324Z,95282.22
2022-09-11T13:54:54.374Z,95279.84
2022-09-11T13:58:02.679Z,95280.63
2022-09-11T14:00:50.550Z,95284.47
2022-09-11T14:03:37.358Z,95275.84
2022-09-11T14:06:24.731Z,95282.53
2022-09-11T14:09:15.972Z,95273.50
2022-09-11T14:12:05.082Z,95266.47
2022-09-11T14:14:57.622Z,95253.06
2022-09-11T14:17:43.396Z,95252.28
2022-09-11T14:20:30.257Z,95246.75
2022-09-11T14:23:27.443Z,95256.16
2022-09-11T14:26:17.051Z,95254.56
2022-09-11T14:29:31.528Z,95260.75
2022-09-11T14:32:33.822Z,95268.50
2022-09-11T14:35:21.004Z,95263.66
2022-09-11T14:38:10.058Z,95268.19
2022-09-11T14:41:02.003Z,95267.25
2022-09-11T14:43:49.618Z,95274.19
2022-09-11T14:46:35.456Z,95263.00
2022-09-11T14:49:22.191Z,95249.41
2022-09-11T14:52:17.571Z,95282.75
2022-09-11T14:55:03.894Z,95284.94
2022-09-11T14:57:49.727Z,95296.19
2022-09-11T15:00:35.533Z,95293.75
2022-09-11T15:03:22.507Z,95273.19
2022-09-11T15:06:20.482Z,95274.63
2022-09-11T15:09:06.656Z,95271.78
2022-09-11T15:11:53.122Z,95266.63
2022-09-11T15:14:55.754Z,95253.16
2022-09-11T15:17:43.666Z,95259.44
2022-09-11T15:20:29.913Z,95265.19
2022-09-11T15:23:16.638Z,95269.38
2022-09-11T15:26:02.857Z,95272.41
2022-09-11T15:28:50.934Z,95274.72
2022-09-11T15:31:39.912Z,95280.91
2022-09-11T15:34:26.579Z,95283.22
2022-09-11T15:37:12.346Z,95283.88
2022-09-11T15:39:58.008Z,95286.19
2022-09-11T15:42:43.916Z,95291.94
2022-09-11T15:45:29.769Z,95303.63
2022-09-11T15:48:16.183Z,95303.84
2022-09-11T15:51:02.214Z,95309.25
2022-09-11T15:53:48.464Z,95306.34
2022-09-11T15:56:36.060Z,95316.06
2022-09-11T15:59:22.463Z,95313.28
2022-09-11T16:02:09.472Z,95298.75
2022-09-11T16:04:55.640Z,95295.56
2022-09-11T16:07:41.814Z,95296.34
2022-09-11T16:10:27.924Z,95305.06
2022-09-11T16:13:13.789Z,95308.25
2022-09-11T16:16:04.195Z,95303.16
2022-09-11T16:18:50.183Z,95308.25
2022-09-11T16:21:36.129Z,95298.88
2022-09-11T16:24:23.019Z,95286.34
2022-09-11T16:27:10.715Z,95291.06
2022-09-11T16:30:32.167Z,95285.59
2022-09-11T16:33:02.539Z,95273.47
2022-09-11T16:36:03.056Z,95277.78
2022-09-11T16:38:51.681Z,95272.31
2022-09-11T16:41:37.882Z,95270.00
2022-09-11T16:44:24.152Z,95276.72
2022-09-11T16:47:10.288Z,95273.19
2022-09-11T16:50:12.134Z,95271.59
2022-09-11T16:53:01.863Z,95260.56
2022-09-11T16:55:49.321Z,95266.84
2022-09-11T16:58:35.099Z,95269.16
2022-09-11T17:01:23.606Z,95277.44
2022-09-11T17:04:09.577Z,95276.66
2022-09-11T17:06:56.515Z,95268.44
2022-09-11T17:09:43.674Z,95269.59
2022-09-11T17:12:29.570Z,95276.66
2022-09-11T17:15:15.351Z,95276.19
2022-09-11T17:18:01.157Z,95294.66
2022-09-11T17:20:47.381Z,95305.91
2022-09-11T17:23:34.559Z,95314.50
2022-09-11T17:26:21.246Z,95314.88
2022-09-11T17:29:07.660Z,95321.50
2022-09-11T17:32:10.534Z,95327.72
2022-09-11T17:34:59.426Z,95333.19
2022-09-11T17:37:46.198Z,95337.06
2022-09-11T17:40:32.351Z,95339.38
2022-09-11T17:43:18.460Z,95340.97
2022-09-11T17:46:10.367Z,95343.69
2022-09-11T17:48:56.545Z,95343.66
2022-09-11T17:51:42.487Z,95360.13
2022-09-11T17:54:28.551Z,95356.91
2022-09-11T17:57:16.077Z,95361.25
2022-09-11T18:00:03.849Z,95356.47
2022-09-11T18:02:58.973Z,95355.25
2022-09-11T18:05:45.680Z,95363.03
2022-09-11T18:08:33.355Z,95358.66
2022-09-11T18:11:19.717Z,95356.28
2022-09-11T18:14:06.248Z,95355.84
2022-09-11T18:16:52.261Z,95354.97
2022-09-11T18:19:38.934Z,95359.31
2022-09-11T18:22:25.498Z,95359.63
2022-09-11T18:25:11.687Z,95363.56
2022-09-11T18:27:59.714Z,95368.25
2022-09-11T18:30:47.540Z,95367.03
2022-09-11T18:33:34.037Z,95370.13
2022-09-11T18:36:21.785Z,95359.09
2022-09-11T18:39:24.982Z,95370.41
2022-09-11T18:42:13.945Z,95381.06
2022-09-11T18:45:00.062Z,95370.84
2022-09-11T18:47:52.679Z,95384.88
2022-09-11T18:50:38.646Z,95376.19
2022-09-11T18:53:26.009Z,95383.97
2022-09-11T18:56:15.377Z,95384.66
2022-09-11T18:59:01.535Z,95387.59
2022-09-11T19:01:48.296Z,95389.28
2022-09-11T19:04:35.058Z,95369.53
2022-09-11T19:07:21.436Z,95392.28
2022-09-11T19:10:07.509Z,95381.81
2022-09-11T19:12:54.222Z,95396.72
2022-09-11T19:15:41.145Z,95390.31
2022-09-11T19:18:27.178Z,95396.50
2022-09-11T19:21:15.939Z,95396.50
2022-09-11T19:24:02.683Z,95393.31
2022-09-11T19:26:49.107Z,95390.25
2022-09-11T19:29:34.834Z,95404.34
2022-09-11T19:32:23.615Z,95407.09
2022-09-11T19:35:09.326Z,95404.34
2022-09-11T19:37:56.063Z,95401.88
2022-09-11T19:40:41.979Z,95414.84
2022-09-11T19:43:32.754Z,95416.00
2022-09-11T19:46:26.487Z,95419.09
2022-09-11T19:49:12.627Z,95412.69
2022-09-11T19:52:00.425Z,95414.25
2022-09-11T19:54:46.790Z,95424.06
2022-09-11T19:57:32.861Z,95429.09
2022-09-11T20:00:18.750Z,95428.38
2022-09-11T20:03:05.265Z,95424.31
2022-09-11T20:05:53.790Z,95437.03
2022-09-11T20:08:43.442Z,95433.16
2022-09-11T20:11:29.269Z,95426.44
2022-09-11T20:14:15.220Z,95429.22
2022-09-11T20:17:01.375Z,95429.22
2022-09-11T20:19:47.463Z,95424.50
2022-09-11T20:22:33.283Z,95422.91
2022-09-11T20:25:19.253Z,95429.97
2022-09-11T20:28:05.626Z,95429.09
2022-09-11T20:30:51.668Z,95414.47
2022-09-11T20:33:37.424Z,95411.66
2022-09-11T20:36:23.785Z,95410.69
2022-09-11T20:39:12.406Z,95417.66
2022-09-11T20:42:00.491Z,95414.03
2022-09-11T20:44:49.045Z,95403.41
2022-09-11T20:47:34.835Z,95415.56
2022-09-11T20:50:20.856Z,95416.53
2022-09-11T20:53:06.867Z,95408.72
2022-09-11T20:55:52.581Z,95417.59
2022-09-11T20:58:39.350Z,95421.13
2022-09-11T21:01:26.797Z,95420.94
2022-09-11T21:04:12.611Z,95430.31
2022-09-11T21:07:00.499Z,95434.09
2022-09-11T21:09:46.789Z,95437.53
2022-09-11T21:12:32.761Z,95430.38
2022-09-11T21:15:18.675Z,95430.97
2022-09-11T21:18:04.631Z,95428.41
2022-09-11T21:20:55.542Z,95436.94
2022-09-11T21:23:41.704Z,95430.59
2022-09-11T21:26:29.003Z,95429.28
2022-09-11T21:29:14.986Z,95433.16
2022-09-11T21:32:00.584Z,95431.84
2022-09-11T21:34:46.404Z,95430.25
2022-09-11T21:37:32.415Z,95429.81
2022-09-11T21:40:18.419Z,95434.34
2022-09-11T21:43:04.487Z,95444.41
2022-09-11T21:45:50.401Z,95438.75
2022-09-11T21:48:39.375Z,95448.06
2022-09-11T21:51:26.441Z,95444.81
2022-09-11T21:54:12.287Z,95447.09
2022-09-11T21:56:58.262Z,95445.16
2022-09-11T21:59:44.411Z,95446.28
2022-09-11T22:02:30.346Z,95454.47
2022-09-11T22:05:16.461Z,95449.38
2022-09-11T22:08:03.190Z,95449.47
2022-09-11T22:10:51.066Z,95447.88
2022-09-11T22:13:37.668Z,95446.75
2022-09-11T22:16:23.620Z,95447.88
2022-09-11T22:19:09.485Z,95452.66
2022-09-11T22:21:55.575Z,95456.53
2022-09-11T22:24:41.509Z,95452.66
2022-09-11T22:27:27.405Z,95457.66
2022-09-11T22:30:13.997Z,95454.94
2022-09-11T22:33:00.432Z,95454.03
2022-09-11T22:35:49.367Z,95451.31
2022-09-11T22:38:35.749Z,95451.13
2022-09-11T22:41:22.291Z,95446.59
2022-09-11T22:44:09.785Z,95452.06
2022-09-11T22:46:55.676Z,95456.72
2022-09-11T22:49:48.878Z,95456.63
2022-09-11T22:52:34.754Z,95453.44
2022-09-11T22:55:20.464Z,95446.16
2022-09-11T22:58:06.196Z,95454.50
2022-09-11T23:00:54.053Z,95455.97
2022-09-11T23:03:40.098Z,95456.16
2022-09-11T23:06:51.148Z,95459.16
2022-09-11T23:09:38.054Z,95466.88
2022-09-11T23:12:24.005Z,95464.38
2022-09-11T23:15:10.143Z,95463.25
2022-09-11T23:17:55.949Z,95456.44
2022-09-11T23:20:41.957Z,95467.47
2022-09-11T23:23:28.028Z,95463.84
2022-09-11T23:26:14.685Z,95460.31
2022-09-11T23:29:00.604Z,95458.28
2022-09-11T23:31:46.932Z,95459.41
2022-09-11T23:34:32.926Z,95459.31
2022-09-11T23:37:18.867Z,95456.94
2022-09-11T23:40:05.767Z,95466.25
2022-09-11T23:43:02.114Z,95465.34
2022-09-11T23:45:48.442Z,95466.03
2022-09-11T23:48:38.908Z,95463.06
2022-09-11T23:51:24.676Z,95460.16
2022-09-11T23:54:10.375Z,95450.84
2022-09-11T23:57:19.350Z,95460.38
